sensor_id;sensor_type;location;lat;lon;timestamp;pressure;altitude;pressure_sealevel;temperature
12430;BMP280;6279;42.192;24.326;2023-06-10T00:00:09;98497.25;;;18.68
12430;BMP280;6279;42.192;24.326;2023-06-10T00:02:37;98496.31;;;18.74
12430;BMP280;6279;42.192;24.326;2023-06-10T00:05:03;98497.91;;;18.75
12430;BMP280;6279;42.192;24.326;2023-06-10T00:07:28;98503.19;;;18.75
12430;BMP280;6279;42.192;24.326;2023-06-10T00:09:54;98509.25;;;18.75
12430;BMP280;6279;42.192;24.326;2023-06-10T00:12:20;98505.81;;;18.52
12430;BMP280;6279;42.192;24.326;2023-06-10T00:14:45;98505.38;;;18.55
12430;BMP280;6279;42.192;24.326;2023-06-10T00:17:11;98506.88;;;18.63
12430;BMP280;6279;42.192;24.326;2023-06-10T00:19:37;98505.63;;;18.65
12430;BMP280;6279;42.192;24.326;2023-06-10T00:22:06;98510.31;;;18.63
12430;BMP280;6279;42.192;24.326;2023-06-10T00:24:32;98502.28;;;18.58
12430;BMP280;6279;42.192;24.326;2023-06-10T00:26:58;98500.56;;;18.52
12430;BMP280;6279;42.192;24.326;2023-06-10T00:29:23;98503.19;;;18.52
12430;BMP280;6279;42.192;24.326;2023-06-10T00:31:48;98497.81;;;18.47
12430;BMP280;6279;42.192;24.326;2023-06-10T00:34:14;98495.75;;;18.49
12430;BMP280;6279;42.192;24.326;2023-06-10T00:36:39;98485.22;;;18.49
12430;BMP280;6279;42.192;24.326;2023-06-10T00:39:08;98486.72;;;18.45
12430;BMP280;6279;42.192;24.326;2023-06-10T00:41:33;98489.19;;;18.41
12430;BMP280;6279;42.192;24.326;2023-06-10T00:43:59;98497.56;;;18.38
12430;BMP280;6279;42.192;24.326;2023-06-10T00:46:24;98496.53;;;18.39
12430;BMP280;6279;42.192;24.326;2023-06-10T00:48:52;98495.50;;;18.28
12430;BMP280;6279;42.192;24.326;2023-06-10T00:51:18;98498.22;;;18.22
12430;BMP280;6279;42.192;24.326;2023-06-10T00:53:44;98501.66;;;18.22
12430;BMP280;6279;42.192;24.326;2023-06-10T00:56:10;98503.25;;;18.23
12430;BMP280;6279;42.192;24.326;2023-06-10T00:58:36;98502.81;;;18.15
12430;BMP280;6279;42.192;24.326;2023-06-10T01:01:01;98503.72;;;18.09
12430;BMP280;6279;42.192;24.326;2023-06-10T01:03:29;98502.47;;;18.12
12430;BMP280;6279;42.192;24.326;2023-06-10T01:09:11;98505.53;;;18.09
12430;BMP280;6279;42.192;24.326;2023-06-10T01:11:57;98497.41;;;18.10
12430;BMP280;6279;42.192;24.326;2023-06-10T01:14:24;98496.84;;;18.08
12430;BMP280;6279;42.192;24.326;2023-06-10T01:16:50;98495.66;;;18.04
12430;BMP280;6279;42.192;24.326;2023-06-10T01:19:18;98494.75;;;17.99
12430;BMP280;6279;42.192;24.326;2023-06-10T01:21:44;98498.06;;;17.95
12430;BMP280;6279;42.192;24.326;2023-06-10T01:24:14;98500.13;;;17.93
12430;BMP280;6279;42.192;24.326;2023-06-10T01:26:41;98497.19;;;17.83
12430;BMP280;6279;42.192;24.326;2023-06-10T01:29:13;98497.75;;;17.85
12430;BMP280;6279;42.192;24.326;2023-06-10T01:32:12;98492.47;;;17.91
12430;BMP280;6279;42.192;24.326;2023-06-10T01:34:42;98491.53;;;17.97
12430;BMP280;6279;42.192;24.326;2023-06-10T01:37:09;98491.31;;;17.99
12430;BMP280;6279;42.192;24.326;2023-06-10T01:39:36;98492.56;;;17.96
12430;BMP280;6279;42.192;24.326;2023-06-10T01:42:03;98487.00;;;17.86
12430;BMP280;6279;42.192;24.326;2023-06-10T01:44:29;98493.97;;;17.81
12430;BMP280;6279;42.192;24.326;2023-06-10T01:46:54;98501.19;;;17.85
12430;BMP280;6279;42.192;24.326;2023-06-10T01:49:19;98494.41;;;17.96
12430;BMP280;6279;42.192;24.326;2023-06-10T01:51:47;98503.56;;;18.04
12430;BMP280;6279;42.192;24.326;2023-06-10T01:54:12;98493.53;;;18.13
12430;BMP280;6279;42.192;24.326;2023-06-10T01:56:38;98500.16;;;18.15
12430;BMP280;6279;42.192;24.326;2023-06-10T01:59:03;98492.63;;;18.07
12430;BMP280;6279;42.192;24.326;2023-06-10T02:01:28;98502.16;;;17.91
12430;BMP280;6279;42.192;24.326;2023-06-10T02:03:54;98498.56;;;17.85
12430;BMP280;6279;42.192;24.326;2023-06-10T02:06:19;98506.44;;;17.74
12430;BMP280;6279;42.192;24.326;2023-06-10T02:08:45;98499.13;;;17.76
12430;BMP280;6279;42.192;24.326;2023-06-10T02:11:10;98499.75;;;17.89
12430;BMP280;6279;42.192;24.326;2023-06-10T02:13:38;98509.25;;;17.90
12430;BMP280;6279;42.192;24.326;2023-06-10T02:16:03;98499.50;;;17.91
12430;BMP280;6279;42.192;24.326;2023-06-10T02:18:29;98503.81;;;17.85
12430;BMP280;6279;42.192;24.326;2023-06-10T02:20:54;98503.91;;;17.97
12430;BMP280;6279;42.192;24.326;2023-06-10T02:23:19;98492.97;;;18.11
12430;BMP280;6279;42.192;24.326;2023-06-10T02:25:45;98495.81;;;18.09
12430;BMP280;6279;42.192;24.326;2023-06-10T02:28:12;98494.56;;;18.12
12430;BMP280;6279;42.192;24.326;2023-06-10T02:30:41;98491.94;;;18.12
12430;BMP280;6279;42.192;24.326;2023-06-10T02:33:08;98494.22;;;18.08
12430;BMP280;6279;42.192;24.326;2023-06-10T02:35:38;98496.50;;;18.16
12430;BMP280;6279;42.192;24.326;2023-06-10T02:38:03;98492.72;;;18.12
12430;BMP280;6279;42.192;24.326;2023-06-10T02:40:29;98497.19;;;18.23
12430;BMP280;6279;42.192;24.326;2023-06-10T02:42:54;98493.91;;;18.39
12430;BMP280;6279;42.192;24.326;2023-06-10T02:45:20;98497.59;;;18.49
12430;BMP280;6279;42.192;24.326;2023-06-10T02:47:45;98488.44;;;18.51
12430;BMP280;6279;42.192;24.326;2023-06-10T02:50:10;98498.19;;;18.62
12430;BMP280;6279;42.192;24.326;2023-06-10T02:52:36;98495.19;;;18.70
12430;BMP280;6279;42.192;24.326;2023-06-10T02:55:01;98499.53;;;18.76
12430;BMP280;6279;42.192;24.326;2023-06-10T02:57:27;98496.94;;;18.87
12430;BMP280;6279;42.192;24.326;2023-06-10T02:59:52;98492.31;;;18.94
12430;BMP280;6279;42.192;24.326;2023-06-10T03:02:18;98498.28;;;19.01
12430;BMP280;6279;42.192;24.326;2023-06-10T03:04:44;98487.63;;;19.07
12430;BMP280;6279;42.192;24.326;2023-06-10T03:07:10;98492.97;;;19.12
12430;BMP280;6279;42.192;24.326;2023-06-10T03:09:36;98492.06;;;19.18
12430;BMP280;6279;42.192;24.326;2023-06-10T03:12:02;98489.75;;;19.21
12430;BMP280;6279;42.192;24.326;2023-06-10T03:14:28;98482.41;;;19.23
12430;BMP280;6279;42.192;24.326;2023-06-10T03:16:53;98493.63;;;19.30
12430;BMP280;6279;42.192;24.326;2023-06-10T03:19:19;98491.69;;;19.37
12430;BMP280;6279;42.192;24.326;2023-06-10T03:21:50;98496.63;;;19.33
12430;BMP280;6279;42.192;24.326;2023-06-10T03:24:20;98491.38;;;19.22
12430;BMP280;6279;42.192;24.326;2023-06-10T03:26:45;98496.06;;;19.20
12430;BMP280;6279;42.192;24.326;2023-06-10T03:29:11;98498.09;;;19.30
12430;BMP280;6279;42.192;24.326;2023-06-10T03:31:36;98494.81;;;19.23
12430;BMP280;6279;42.192;24.326;2023-06-10T03:34:02;98506.13;;;19.34
12430;BMP280;6279;42.192;24.326;2023-06-10T03:36:27;98507.50;;;19.37
12430;BMP280;6279;42.192;24.326;2023-06-10T03:38:54;98512.78;;;19.37
12430;BMP280;6279;42.192;24.326;2023-06-10T03:41:22;98521.00;;;19.40
12430;BMP280;6279;42.192;24.326;2023-06-10T03:43:47;98514.28;;;19.22
12430;BMP280;6279;42.192;24.326;2023-06-10T03:46:13;98518.78;;;19.10
12430;BMP280;6279;42.192;24.326;2023-06-10T03:48:38;98515.81;;;19.07
12430;BMP280;6279;42.192;24.326;2023-06-10T03:51:04;98510.75;;;19.05
12430;BMP280;6279;42.192;24.326;2023-06-10T03:53:30;98520.19;;;19.01
12430;BMP280;6279;42.192;24.326;2023-06-10T03:55:55;98518.91;;;19.04
12430;BMP280;6279;42.192;24.326;2023-06-10T03:58:22;98525.91;;;18.98
12430;BMP280;6279;42.192;24.326;2023-06-10T04:00:48;98524.75;;;18.94
12430;BMP280;6279;42.192;24.326;2023-06-10T04:03:14;98528.78;;;18.86
12430;BMP280;6279;42.192;24.326;2023-06-10T04:05:41;98531.50;;;18.90
12430;BMP280;6279;42.192;24.326;2023-06-10T04:08:07;98530.38;;;18.98
12430;BMP280;6279;42.192;24.326;2023-06-10T04:10:33;98527.19;;;18.96
12430;BMP280;6279;42.192;24.326;2023-06-10T04:12:58;98529.91;;;19.01
12430;BMP280;6279;42.192;24.326;2023-06-10T04:15:25;98536.19;;;19.11
12430;BMP280;6279;42.192;24.326;2023-06-10T04:17:50;98520.13;;;19.24
12430;BMP280;6279;42.192;24.326;2023-06-10T04:20:16;98525.47;;;19.40
12430;BMP280;6279;42.192;24.326;2023-06-10T04:22:41;98525.66;;;19.61
12430;BMP280;6279;42.192;24.326;2023-06-10T04:25:09;98520.50;;;19.66
12430;BMP280;6279;42.192;24.326;2023-06-10T04:27:34;98528.63;;;19.64
12430;BMP280;6279;42.192;24.326;2023-06-10T04:29:59;98533.47;;;19.67
12430;BMP280;6279;42.192;24.326;2023-06-10T04:32:25;98528.38;;;19.77
12430;BMP280;6279;42.192;24.326;2023-06-10T04:34:51;98523.13;;;19.93
12430;BMP280;6279;42.192;24.326;2023-06-10T04:37:17;98524.53;;;20.12
12430;BMP280;6279;42.192;24.326;2023-06-10T04:39:43;98522.97;;;20.27
12430;BMP280;6279;42.192;24.326;2023-06-10T04:42:08;98521.16;;;20.43
12430;BMP280;6279;42.192;24.326;2023-06-10T04:44:34;98524.69;;;20.65
12430;BMP280;6279;42.192;24.326;2023-06-10T04:46:59;98524.34;;;20.78
12430;BMP280;6279;42.192;24.326;2023-06-10T04:49:25;98527.28;;;20.97
12430;BMP280;6279;42.192;24.326;2023-06-10T04:51:50;98528.84;;;21.14
12430;BMP280;6279;42.192;24.326;2023-06-10T04:54:16;98524.41;;;21.36
12430;BMP280;6279;42.192;24.326;2023-06-10T04:56:42;98522.38;;;21.64
12430;BMP280;6279;42.192;24.326;2023-06-10T04:59:07;98522.22;;;21.75
12430;BMP280;6279;42.192;24.326;2023-06-10T05:01:32;98517.72;;;21.97
12430;BMP280;6279;42.192;24.326;2023-06-10T05:03:58;98519.28;;;22.19
12430;BMP280;6279;42.192;24.326;2023-06-10T05:06:23;98523.50;;;22.45
12430;BMP280;6279;42.192;24.326;2023-06-10T05:08:49;98526.19;;;22.50
12430;BMP280;6279;42.192;24.326;2023-06-10T05:11:14;98523.41;;;23.02
12430;BMP280;6279;42.192;24.326;2023-06-10T05:13:41;98517.59;;;23.46
12430;BMP280;6279;42.192;24.326;2023-06-10T05:16:07;98525.34;;;23.62
12430;BMP280;6279;42.192;24.326;2023-06-10T05:18:33;98525.03;;;23.49
12430;BMP280;6279;42.192;24.326;2023-06-10T05:20:58;98540.50;;;23.21
12430;BMP280;6279;42.192;24.326;2023-06-10T05:23:24;98538.19;;;23.29
12430;BMP280;6279;42.192;24.326;2023-06-10T05:25:49;98536.78;;;23.22
12430;BMP280;6279;42.192;24.326;2023-06-10T05:28:15;98530.41;;;23.18
12430;BMP280;6279;42.192;24.326;2023-06-10T05:30:40;98535.81;;;23.32
12430;BMP280;6279;42.192;24.326;2023-06-10T05:33:05;98533.53;;;23.55
12430;BMP280;6279;42.192;24.326;2023-06-10T05:35:31;98533.94;;;23.88
12430;BMP280;6279;42.192;24.326;2023-06-10T05:37:56;98534.31;;;24.31
12430;BMP280;6279;42.192;24.326;2023-06-10T05:40:22;98530.63;;;24.90
12430;BMP280;6279;42.192;24.326;2023-06-10T05:42:47;98536.09;;;25.48
12430;BMP280;6279;42.192;24.326;2023-06-10T05:45:12;98531.63;;;25.96
12430;BMP280;6279;42.192;24.326;2023-06-10T05:47:38;98529.66;;;26.58
12430;BMP280;6279;42.192;24.326;2023-06-10T05:50:04;98540.53;;;26.94
12430;BMP280;6279;42.192;24.326;2023-06-10T05:52:33;98539.75;;;26.61
12430;BMP280;6279;42.192;24.326;2023-06-10T05:54:58;98535.56;;;26.45
12430;BMP280;6279;42.192;24.326;2023-06-10T05:57:25;98540.00;;;26.64
12430;BMP280;6279;42.192;24.326;2023-06-10T05:59:51;98545.97;;;26.85
12430;BMP280;6279;42.192;24.326;2023-06-10T06:02:16;98548.38;;;26.81
12430;BMP280;6279;42.192;24.326;2023-06-10T06:04:42;98552.09;;;27.18
12430;BMP280;6279;42.192;24.326;2023-06-10T06:07:07;98553.84;;;27.50
12430;BMP280;6279;42.192;24.326;2023-06-10T06:09:33;98548.13;;;27.84
12430;BMP280;6279;42.192;24.326;2023-06-10T06:11:58;98551.94;;;27.78
12430;BMP280;6279;42.192;24.326;2023-06-10T06:14:23;98548.94;;;28.03
12430;BMP280;6279;42.192;24.326;2023-06-10T06:16:49;98550.66;;;28.35
12430;BMP280;6279;42.192;24.326;2023-06-10T06:19:14;98546.25;;;28.44
12430;BMP280;6279;42.192;24.326;2023-06-10T06:21:40;98554.16;;;27.95
12430;BMP280;6279;42.192;24.326;2023-06-10T06:24:06;98544.19;;;27.31
12430;BMP280;6279;42.192;24.326;2023-06-10T06:26:32;98540.47;;;27.55
12430;BMP280;6279;42.192;24.326;2023-06-10T06:28:57;98536.50;;;27.75
12430;BMP280;6279;42.192;24.326;2023-06-10T06:31:23;98526.25;;;27.59
12430;BMP280;6279;42.192;24.326;2023-06-10T06:33:48;98529.00;;;27.50
12430;BMP280;6279;42.192;24.326;2023-06-10T06:36:15;98527.41;;;28.13
12430;BMP280;6279;42.192;24.326;2023-06-10T06:38:40;98528.53;;;28.79
12430;BMP280;6279;42.192;24.326;2023-06-10T06:41:05;98519.44;;;29.91
12430;BMP280;6279;42.192;24.326;2023-06-10T06:43:32;98521.75;;;30.96
12430;BMP280;6279;42.192;24.326;2023-06-10T06:45:57;98525.91;;;31.62
12430;BMP280;6279;42.192;24.326;2023-06-10T06:48:23;98515.31;;;32.28
12430;BMP280;6279;42.192;24.326;2023-06-10T06:50:49;98511.94;;;32.98
12430;BMP280;6279;42.192;24.326;2023-06-10T06:53:14;98520.22;;;33.38
12430;BMP280;6279;42.192;24.326;2023-06-10T06:55:39;98511.88;;;31.73
12430;BMP280;6279;42.192;24.326;2023-06-10T06:58:05;98505.25;;;31.41
12430;BMP280;6279;42.192;24.326;2023-06-10T07:00:31;98505.66;;;31.56
12430;BMP280;6279;42.192;24.326;2023-06-10T07:02:56;98502.59;;;32.04
12430;BMP280;6279;42.192;24.326;2023-06-10T07:05:23;98505.09;;;31.92
12430;BMP280;6279;42.192;24.326;2023-06-10T07:07:50;98503.97;;;31.76
12430;BMP280;6279;42.192;24.326;2023-06-10T07:10:20;98494.63;;;31.82
12430;BMP280;6279;42.192;24.326;2023-06-10T07:12:47;98487.47;;;31.61
12430;BMP280;6279;42.192;24.326;2023-06-10T07:15:12;98486.31;;;32.09
12430;BMP280;6279;42.192;24.326;2023-06-10T07:17:38;98490.16;;;33.19
12430;BMP280;6279;42.192;24.326;2023-06-10T07:20:03;98487.63;;;34.16
12430;BMP280;6279;42.192;24.326;2023-06-10T07:22:29;98492.97;;;35.20
12430;BMP280;6279;42.192;24.326;2023-06-10T07:24:54;98492.53;;;36.12
12430;BMP280;6279;42.192;24.326;2023-06-10T07:27:20;98497.41;;;36.06
12430;BMP280;6279;42.192;24.326;2023-06-10T07:29:46;98487.16;;;36.00
12430;BMP280;6279;42.192;24.326;2023-06-10T07:32:11;98486.44;;;35.09
12430;BMP280;6279;42.192;24.326;2023-06-10T07:34:36;98481.53;;;34.39
12430;BMP280;6279;42.192;24.326;2023-06-10T07:37:02;98482.44;;;33.83
12430;BMP280;6279;42.192;24.326;2023-06-10T07:39:27;98474.44;;;33.66
12430;BMP280;6279;42.192;24.326;2023-06-10T07:41:53;98474.13;;;33.59
12430;BMP280;6279;42.192;24.326;2023-06-10T07:44:19;98476.50;;;33.61
12430;BMP280;6279;42.192;24.326;2023-06-10T07:46:44;98469.31;;;33.93
12430;BMP280;6279;42.192;24.326;2023-06-10T07:49:10;98476.91;;;33.79
12430;BMP280;6279;42.192;24.326;2023-06-10T07:51:35;98475.69;;;34.17
12430;BMP280;6279;42.192;24.326;2023-06-10T07:54:04;98467.25;;;35.02
12430;BMP280;6279;42.192;24.326;2023-06-10T07:56:30;98468.84;;;35.03
12430;BMP280;6279;42.192;24.326;2023-06-10T07:58:55;98476.81;;;34.88
12430;BMP280;6279;42.192;24.326;2023-06-10T08:01:22;98481.81;;;34.78
12430;BMP280;6279;42.192;24.326;2023-06-10T08:03:48;98479.75;;;34.63
12430;BMP280;6279;42.192;24.326;2023-06-10T08:06:14;98479.69;;;34.11
12430;BMP280;6279;42.192;24.326;2023-06-10T08:08:39;98478.88;;;33.91
12430;BMP280;6279;42.192;24.326;2023-06-10T08:11:10;98488.88;;;33.25
12430;BMP280;6279;42.192;24.326;2023-06-10T08:13:35;98476.28;;;32.92
12430;BMP280;6279;42.192;24.326;2023-06-10T08:16:01;98482.66;;;32.71
12430;BMP280;6279;42.192;24.326;2023-06-10T08:18:26;98473.88;;;32.99
12430;BMP280;6279;42.192;24.326;2023-06-10T08:20:52;98487.22;;;33.41
12430;BMP280;6279;42.192;24.326;2023-06-10T08:23:17;98491.97;;;33.44
12430;BMP280;6279;42.192;24.326;2023-06-10T08:25:42;98479.78;;;34.03
12430;BMP280;6279;42.192;24.326;2023-06-10T08:28:08;98482.06;;;35.05
12430;BMP280;6279;42.192;24.326;2023-06-10T08:30:33;98485.19;;;35.07
12430;BMP280;6279;42.192;24.326;2023-06-10T08:32:59;98486.31;;;36.23
12430;BMP280;6279;42.192;24.326;2023-06-10T08:35:25;98486.56;;;36.18
12430;BMP280;6279;42.192;24.326;2023-06-10T08:37:50;98488.75;;;35.89
12430;BMP280;6279;42.192;24.326;2023-06-10T08:40:16;98485.63;;;34.97
12430;BMP280;6279;42.192;24.326;2023-06-10T08:43:06;98491.13;;;33.15
12430;BMP280;6279;42.192;24.326;2023-06-10T08:45:34;98485.00;;;31.90
12430;BMP280;6279;42.192;24.326;2023-06-10T08:48:03;98480.88;;;31.37
12430;BMP280;6279;42.192;24.326;2023-06-10T08:50:34;98483.31;;;31.47
12430;BMP280;6279;42.192;24.326;2023-06-10T08:53:01;98470.09;;;31.67
12430;BMP280;6279;42.192;24.326;2023-06-10T08:55:31;98471.25;;;31.91
12430;BMP280;6279;42.192;24.326;2023-06-10T08:57:59;98469.97;;;31.89
12430;BMP280;6279;42.192;24.326;2023-06-10T09:00:26;98460.94;;;31.68
12430;BMP280;6279;42.192;24.326;2023-06-10T09:02:52;98467.03;;;31.52
12430;BMP280;6279;42.192;24.326;2023-06-10T09:05:17;98461.06;;;31.55
12430;BMP280;6279;42.192;24.326;2023-06-10T09:07:43;98464.44;;;31.30
12430;BMP280;6279;42.192;24.326;2023-06-10T09:10:10;98460.41;;;31.58
12430;BMP280;6279;42.192;24.326;2023-06-10T09:12:36;98460.31;;;31.88
12430;BMP280;6279;42.192;24.326;2023-06-10T09:15:03;98453.34;;;31.78
12430;BMP280;6279;42.192;24.326;2023-06-10T09:17:29;98455.13;;;32.33
12430;BMP280;6279;42.192;24.326;2023-06-10T09:19:55;98452.53;;;32.86
12430;BMP280;6279;42.192;24.326;2023-06-10T09:22:22;98451.72;;;32.85
12430;BMP280;6279;42.192;24.326;2023-06-10T09:24:48;98457.59;;;32.87
12430;BMP280;6279;42.192;24.326;2023-06-10T09:27:14;98450.56;;;33.11
12430;BMP280;6279;42.192;24.326;2023-06-10T09:29:53;98448.38;;;33.70
12430;BMP280;6279;42.192;24.326;2023-06-10T09:32:19;98439.75;;;33.96
12430;BMP280;6279;42.192;24.326;2023-06-10T09:34:46;98442.34;;;34.13
12430;BMP280;6279;42.192;24.326;2023-06-10T09:37:12;98439.31;;;34.15
12430;BMP280;6279;42.192;24.326;2023-06-10T09:39:39;98448.94;;;33.84
12430;BMP280;6279;42.192;24.326;2023-06-10T09:42:16;98456.16;;;33.35
12430;BMP280;6279;42.192;24.326;2023-06-10T09:44:42;98448.25;;;32.85
12430;BMP280;6279;42.192;24.326;2023-06-10T09:47:07;98445.00;;;32.38
12430;BMP280;6279;42.192;24.326;2023-06-10T09:49:32;98446.44;;;32.11
12430;BMP280;6279;42.192;24.326;2023-06-10T09:51:58;98442.94;;;32.10
12430;BMP280;6279;42.192;24.326;2023-06-10T09:54:23;98447.78;;;31.67
12430;BMP280;6279;42.192;24.326;2023-06-10T09:56:51;98444.22;;;31.41
12430;BMP280;6279;42.192;24.326;2023-06-10T09:59:28;98452.38;;;31.20
12430;BMP280;6279;42.192;24.326;2023-06-10T10:01:56;98445.56;;;30.92
12430;BMP280;6279;42.192;24.326;2023-06-10T10:04:25;98448.19;;;30.54
12430;BMP280;6279;42.192;24.326;2023-06-10T10:06:50;98445.00;;;30.09
12430;BMP280;6279;42.192;24.326;2023-06-10T10:09:16;98444.41;;;30.12
12430;BMP280;6279;42.192;24.326;2023-06-10T10:11:43;98436.00;;;30.05
12430;BMP280;6279;42.192;24.326;2023-06-10T10:14:09;98438.59;;;29.84
12430;BMP280;6279;42.192;24.326;2023-06-10T10:16:40;98437.88;;;29.57
12430;BMP280;6279;42.192;24.326;2023-06-10T10:19:17;98438.25;;;29.64
12430;BMP280;6279;42.192;24.326;2023-06-10T10:22:01;98441.47;;;29.52
12430;BMP280;6279;42.192;24.326;2023-06-10T10:24:38;98448.47;;;29.75
12430;BMP280;6279;42.192;24.326;2023-06-10T10:27:09;98448.59;;;29.44
12430;BMP280;6279;42.192;24.326;2023-06-10T10:29:38;98434.50;;;29.38
12430;BMP280;6279;42.192;24.326;2023-06-10T10:32:06;98435.09;;;29.22
12430;BMP280;6279;42.192;24.326;2023-06-10T10:35:02;98430.91;;;29.69
12430;BMP280;6279;42.192;24.326;2023-06-10T10:37:31;98426.47;;;30.21
12430;BMP280;6279;42.192;24.326;2023-06-10T10:39:56;98431.41;;;30.70
12430;BMP280;6279;42.192;24.326;2023-06-10T10:42:22;98438.09;;;31.11
12430;BMP280;6279;42.192;24.326;2023-06-10T10:44:49;98430.25;;;31.23
12430;BMP280;6279;42.192;24.326;2023-06-10T10:47:15;98427.25;;;31.24
12430;BMP280;6279;42.192;24.326;2023-06-10T10:49:43;98429.44;;;31.69
12430;BMP280;6279;42.192;24.326;2023-06-10T10:52:11;98425.34;;;31.79
12430;BMP280;6279;42.192;24.326;2023-06-10T10:54:37;98417.03;;;32.92
12430;BMP280;6279;42.192;24.326;2023-06-10T10:57:14;98416.97;;;34.78
12430;BMP280;6279;42.192;24.326;2023-06-10T10:59:54;98414.78;;;36.78
12430;BMP280;6279;42.192;24.326;2023-06-10T11:02:44;98420.72;;;37.74
12430;BMP280;6279;42.192;24.326;2023-06-10T11:05:14;98416.13;;;38.67
12430;BMP280;6279;42.192;24.326;2023-06-10T11:07:40;98414.84;;;39.72
12430;BMP280;6279;42.192;24.326;2023-06-10T11:10:10;98417.66;;;39.53
12430;BMP280;6279;42.192;24.326;2023-06-10T11:15:11;98406.56;;;37.05
12430;BMP280;6279;42.192;24.326;2023-06-10T11:17:37;98405.00;;;36.62
12430;BMP280;6279;42.192;24.326;2023-06-10T11:20:03;98390.75;;;36.64
12430;BMP280;6279;42.192;24.326;2023-06-10T11:22:28;98390.38;;;36.24
12430;BMP280;6279;42.192;24.326;2023-06-10T11:24:54;98383.91;;;36.40
12430;BMP280;6279;42.192;24.326;2023-06-10T11:27:21;98391.47;;;35.10
12430;BMP280;6279;42.192;24.326;2023-06-10T11:32:22;98378.44;;;34.57
12430;BMP280;6279;42.192;24.326;2023-06-10T11:34:52;98380.31;;;34.25
12430;BMP280;6279;42.192;24.326;2023-06-10T11:37:18;98372.25;;;34.57
12430;BMP280;6279;42.192;24.326;2023-06-10T11:39:44;98366.72;;;34.53
12430;BMP280;6279;42.192;24.326;2023-06-10T11:42:10;98366.88;;;34.80
12430;BMP280;6279;42.192;24.326;2023-06-10T11:44:36;98363.28;;;34.76
12430;BMP280;6279;42.192;24.326;2023-06-10T11:47:03;98364.28;;;34.72
12430;BMP280;6279;42.192;24.326;2023-06-10T11:49:28;98362.16;;;34.14
12430;BMP280;6279;42.192;24.326;2023-06-10T11:51:54;98352.78;;;33.79
12430;BMP280;6279;42.192;24.326;2023-06-10T11:54:20;98353.50;;;33.40
12430;BMP280;6279;42.192;24.326;2023-06-10T11:56:47;98357.56;;;32.89
12430;BMP280;6279;42.192;24.326;2023-06-10T11:59:13;98362.81;;;32.32
12430;BMP280;6279;42.192;24.326;2023-06-10T12:01:43;98351.91;;;32.37
12430;BMP280;6279;42.192;24.326;2023-06-10T12:04:10;98354.16;;;32.18
12430;BMP280;6279;42.192;24.326;2023-06-10T12:06:43;98357.28;;;32.29
12430;BMP280;6279;42.192;24.326;2023-06-10T12:09:20;98354.94;;;32.02
12430;BMP280;6279;42.192;24.326;2023-06-10T12:11:52;98353.31;;;31.51
12430;BMP280;6279;42.192;24.326;2023-06-10T12:20:03;98337.50;;;33.15
12430;BMP280;6279;42.192;24.326;2023-06-10T12:22:39;98342.13;;;32.78
12430;BMP280;6279;42.192;24.326;2023-06-10T12:25:06;98326.81;;;32.62
12430;BMP280;6279;42.192;24.326;2023-06-10T12:27:33;98329.16;;;33.00
12430;BMP280;6279;42.192;24.326;2023-06-10T12:30:00;98314.03;;;33.64
12430;BMP280;6279;42.192;24.326;2023-06-10T12:32:44;98314.63;;;34.21
12430;BMP280;6279;42.192;24.326;2023-06-10T12:35:12;98306.78;;;34.40
12430;BMP280;6279;42.192;24.326;2023-06-10T12:37:38;98321.59;;;34.22
12430;BMP280;6279;42.192;24.326;2023-06-10T12:40:05;98311.78;;;33.86
12430;BMP280;6279;42.192;24.326;2023-06-10T12:42:32;98300.94;;;33.54
12430;BMP280;6279;42.192;24.326;2023-06-10T12:44:59;98294.31;;;33.23
12430;BMP280;6279;42.192;24.326;2023-06-10T12:47:34;98297.00;;;33.03
12430;BMP280;6279;42.192;24.326;2023-06-10T12:50:01;98301.97;;;31.70
12430;BMP280;6279;42.192;24.326;2023-06-10T12:52:27;98292.41;;;31.14
12430;BMP280;6279;42.192;24.326;2023-06-10T12:54:55;98295.78;;;30.89
12430;BMP280;6279;42.192;24.326;2023-06-10T12:57:22;98287.78;;;30.51
12430;BMP280;6279;42.192;24.326;2023-06-10T12:59:48;98285.53;;;30.45
12430;BMP280;6279;42.192;24.326;2023-06-10T13:02:20;98288.78;;;30.72
12430;BMP280;6279;42.192;24.326;2023-06-10T13:04:46;98282.47;;;31.14
12430;BMP280;6279;42.192;24.326;2023-06-10T13:07:12;98277.19;;;31.01
12430;BMP280;6279;42.192;24.326;2023-06-10T13:09:38;98279.94;;;31.18
12430;BMP280;6279;42.192;24.326;2023-06-10T13:12:04;98283.63;;;30.84
12430;BMP280;6279;42.192;24.326;2023-06-10T13:14:31;98267.44;;;31.22
12430;BMP280;6279;42.192;24.326;2023-06-10T13:16:56;98288.56;;;30.98
12430;BMP280;6279;42.192;24.326;2023-06-10T13:19:21;98283.25;;;30.30
12430;BMP280;6279;42.192;24.326;2023-06-10T13:21:47;98279.69;;;30.13
12430;BMP280;6279;42.192;24.326;2023-06-10T13:24:13;98269.47;;;30.53
12430;BMP280;6279;42.192;24.326;2023-06-10T13:26:41;98273.66;;;30.76
12430;BMP280;6279;42.192;24.326;2023-06-10T13:29:06;98269.88;;;30.77
12430;BMP280;6279;42.192;24.326;2023-06-10T13:31:33;98268.09;;;30.64
12430;BMP280;6279;42.192;24.326;2023-06-10T13:33:59;98265.63;;;29.86
12430;BMP280;6279;42.192;24.326;2023-06-10T13:36:24;98263.22;;;29.63
12430;BMP280;6279;42.192;24.326;2023-06-10T13:38:50;98267.75;;;29.76
12430;BMP280;6279;42.192;24.326;2023-06-10T13:41:15;98255.56;;;29.92
12430;BMP280;6279;42.192;24.326;2023-06-10T13:43:41;98261.16;;;29.82
12430;BMP280;6279;42.192;24.326;2023-06-10T13:46:06;98263.09;;;29.47
12430;BMP280;6279;42.192;24.326;2023-06-10T13:48:32;98259.94;;;29.31
12430;BMP280;6279;42.192;24.326;2023-06-10T13:50:57;98260.13;;;29.13
12430;BMP280;6279;42.192;24.326;2023-06-10T13:53:23;98259.34;;;29.48
12430;BMP280;6279;42.192;24.326;2023-06-10T13:55:48;98264.81;;;29.64
12430;BMP280;6279;42.192;24.326;2023-06-10T13:58:14;98263.66;;;29.78
12430;BMP280;6279;42.192;24.326;2023-06-10T14:00:39;98259.16;;;29.87
12430;BMP280;6279;42.192;24.326;2023-06-10T14:03:04;98262.56;;;29.79
12430;BMP280;6279;42.192;24.326;2023-06-10T14:05:30;98261.66;;;30.05
12430;BMP280;6279;42.192;24.326;2023-06-10T14:07:55;98255.69;;;30.46
12430;BMP280;6279;42.192;24.326;2023-06-10T14:10:21;98255.03;;;30.87
12430;BMP280;6279;42.192;24.326;2023-06-10T14:12:46;98249.19;;;30.85
12430;BMP280;6279;42.192;24.326;2023-06-10T14:15:12;98254.59;;;30.47
12430;BMP280;6279;42.192;24.326;2023-06-10T14:17:37;98254.78;;;29.70
12430;BMP280;6279;42.192;24.326;2023-06-10T14:20:03;98248.03;;;29.51